AGROMETEOROLOŠKI PORTAL

vinorodna pokrajina

Temelj dobrega kmetovanja

Pregled podatkov za lokacijo LENDAVA - TERME ARSO, meteorološka postaja 151

Pregled senzorjev na lokaciji

ID Ime Zadnja
vrednost
Datum in čas
meritve
(lokalni čas)
Tip
senzorja
6032 Zračni tlak (hPa) 992 hPa 30.9.2022 11:00 ARSO
4844 Sončno sevanje (W/m2) 246 W/m2 30.9.2022 11:00 ARSO
4849 Padavine (mm) 0 mm 30.9.2022 11:00 ARSO
4853 Relativna zračna vlaga (2 m) (% RH) 91 % RH 30.9.2022 11:00 ARSO
4852 Temperatura (2 m) (°C) 13 °C 30.9.2022 11:00 ARSO
4856 Smer vetra (2 m) (°) 286 ° 30.9.2022 11:00 ARSO
4857 Hitrost vetra (2 m) (km/h) 3 km/h 30.9.2022 11:00 ARSO

Pregled podatkov zadnjih 24 ur

Zap.
št.
Datum in čas
(lokalni čas)
LENDAVA - TERME ARSO
Zračni
tlak
Sončno
sevanje
Padavine Relativna
zračna
vlaga
(2
m)
Temperatura
(2
m)
Smer
vetra
(2
m)
Hitrost
vetra
(2
m)
1 30.9.2022 11:00 992 246 0 91 13 286 3
2 30.9.2022 10:30 991,2 154 0 94 12,4 251 2
3 30.9.2022 10:00 991,2 94 0 97 11,9 270 3
4 30.9.2022 09:30 990,7 57 0 98 11,6 260 5
5 30.9.2022 09:00 990,2 44 0 98 11,5 287 3
6 30.9.2022 08:30 989,7 26 0 98 11,3 296 3
7 30.9.2022 08:00 988,9 13 0 98 11,1 305 5
8 30.9.2022 07:30 988,4 8 0 98 11,1 304 4
9 30.9.2022 07:00 988,2 0 0 98 11,1 307 3
10 30.9.2022 06:30 987,8 0 0 98 11,1 304 3
11 30.9.2022 06:00 987,3 0 0 98 11,1 312 3
12 30.9.2022 05:30 987,2 0 0 98 11 318 2
13 30.9.2022 05:00 987,2 0 0,1 98 11 302 5
14 30.9.2022 04:30 986,8 0 0,5 98 11 298 2
15 30.9.2022 04:00 987 0 2,9 98 10,9 316 2
16 30.9.2022 03:30 986,9 0 1 98 11 303 3
17 30.9.2022 03:00 987 0 1,2 98 11 330 2
18 30.9.2022 02:30 987,1 0 1,8 97 11 322 2
19 30.9.2022 02:00 987,2 0 1,4 97 11 323 1
20 30.9.2022 01:30 987 0 0 97 11 315 1
21 30.9.2022 01:00 987,1 0 0 97 11 329 1
22 30.9.2022 00:30 987,2 0 0 97 11 336 1
23 30.9.2022 00:00 987,2 0 0,1 97 10,9 337 1
24 29.9.2022 23:30 987,1 0 0 97 10,9 323 1
25 29.9.2022 23:00 987 0 0 97 10,9 8 1
26 29.9.2022 22:30 987,1 0 0,3 97 10,9 13 1
27 29.9.2022 22:00 987,1 0 1,2 98 11 323 1
28 29.9.2022 21:30 986,9 0 2,6 98 11 299 4
29 29.9.2022 21:00 986,8 0 3 97 11,1 288 2
30 29.9.2022 20:30 986,6 0 0,6 96 11,1 139 3
31 29.9.2022 20:00 986,4 0 0,5 95 11,1 240 3
32 29.9.2022 19:30 985,9 0 0,1 95 11,3 73 2
33 29.9.2022 19:00 986,5 0 0,2 95 11,5 325 1
34 29.9.2022 18:30 986,2 8 0 95 11,6 325 1
35 29.9.2022 18:00 986 19 0 95 11,7 309 1
36 29.9.2022 17:30 985,7 47 0,4 94 11,7 310 2
37 29.9.2022 17:00 985,7 46 0 93 11,6 341 1
38 29.9.2022 16:30 985,5 48 0 93 11,6 344 2
39 29.9.2022 16:00 985,5 58 0 94 11,6 324 2
40 29.9.2022 15:30 985,2 93 0,2 93 11,2 331 2
41 29.9.2022 15:00 985,7 42 0,8 93 11,1 67 2
42 29.9.2022 14:30 985,7 57 0,6 92 11,2 240 2
43 29.9.2022 14:00 985,6 79 0,6 92 11,2 6 2
44 29.9.2022 13:30 986,2 77 0,6 91 11,1 319 2
45 29.9.2022 13:00 985,6 84 2,1 92 11,1 52 2